Pagina principale
METAR-TAF:

METAR-TAF

Aeroporti :

La Chaux-de-Fonds, Svizzera

latitudine: 47-05-03N, longitudine: 006-47-37E, altezza: 1027 m

Osservazione

Il bollettino è stato emesso 22 minuti fa, alle 20:20 UTC
Vento calmo
Temperature 14°C
Umidità 77%
Pressione 1023 hPa
Visibilità 10 km o più
nessuna nube inferiore a 1500 m e nessun cumulonembo

METAR: LSGC 162020Z AUTO 00000KT CAVOK 14/10 Q1023

Ora: 22:42 (20:42 UTC)

Previsione

Il bollettino è stato emesso 6 ore e 17 minuti fa, alle 14:25 UTC
Previsione valida dal 16 alle 15 UTC al 16 alle 24 UTC
Vento 5 kt da ovest/sud-ovest
Visibilità 10 km o più
nessuna nube inferiore a 1500 m e nessun cumulonembo

TAF: LSGC 161425Z 1615/1624 24005KT CAVOK

Osservazioni e previsioni meteorologiche di più di 4000 aeroporti (messaggi METAR e TAF).

Le stazioni disponibili sono rappresentate dai dischi gialli e rossi sulla carta.

Puntare il mouse per vedere il nome della stazione.

Clicca sopra per visualizzare le osservazioni e previsioni meteorologiche.

Per cambiare la mappa : fare clic sui pulsanti verdi con una croce nera per ingrandire, il pulsante verde con un trattino per diminuire, o sulla freccia verde per le mappe adiacenti.


METAR-TAF: